createdAt,value
2022-07-25T00:00:13.005Z,98154.53
2022-07-25T00:02:39.870Z,98145.38
2022-07-25T00:05:06.708Z,98144.03
2022-07-25T00:07:33.332Z,98145.47
2022-07-25T00:10:00.102Z,98140.09
2022-07-25T00:12:27.052Z,98143.53
2022-07-25T00:14:53.602Z,98138.13
2022-07-25T00:17:20.156Z,98138.47
2022-07-25T00:19:46.713Z,98139.66
2022-07-25T00:22:13.503Z,98136.06
2022-07-25T00:24:40.113Z,98132.28
2022-07-25T00:27:08.015Z,98132.72
2022-07-25T00:29:34.542Z,98136.31
2022-07-25T00:32:04.811Z,98135.34
2022-07-25T00:34:31.272Z,98135.22
2022-07-25T00:36:57.757Z,98130.81
2022-07-25T00:39:24.301Z,98131.53
2022-07-25T00:41:50.786Z,98131.25
2022-07-25T00:44:31.369Z,98133.06
2022-07-25T00:46:58.696Z,98130.31
2022-07-25T00:49:26.349Z,98126.34
2022-07-25T00:51:54.014Z,98127.06
2022-07-25T00:54:21.242Z,98122.88
2022-07-25T00:56:49.042Z,98119.91
2022-07-25T00:59:17.015Z,98125.97
2022-07-25T01:01:45.547Z,98120.47
2022-07-25T01:04:12.149Z,98118.53
2022-07-25T01:06:38.699Z,98119.50
2022-07-25T01:09:05.338Z,98115.56
2022-07-25T01:11:31.830Z,98108.75
2022-07-25T01:13:58.285Z,98111.38
2022-07-25T01:16:24.835Z,98114.56
2022-07-25T01:18:51.352Z,98104.44
2022-07-25T01:21:17.882Z,98116.25
2022-07-25T01:23:44.343Z,98104.91
2022-07-25T01:26:10.791Z,98105.13
2022-07-25T01:28:37.357Z,98102.50
2022-07-25T01:31:04.786Z,98105.03
2022-07-25T01:33:31.362Z,98093.66
2022-07-25T01:35:57.844Z,98089.13
2022-07-25T01:38:24.422Z,98083.03
2022-07-25T01:40:50.912Z,98085.78
2022-07-25T01:43:17.438Z,98086.75
2022-07-25T01:45:43.956Z,98085.09
2022-07-25T01:48:10.429Z,98084.25
2022-07-25T01:50:37.037Z,98083.69
2022-07-25T01:53:04.257Z,98084.75
2022-07-25T01:55:30.717Z,98091.81
2022-07-25T01:58:01.392Z,98088.59
2022-07-25T02:00:28.346Z,98085.31
2022-07-25T02:03:14.867Z,98077.28
2022-07-25T02:05:41.644Z,98073.34
2022-07-25T02:08:08.197Z,98077.53
2022-07-25T02:10:38.012Z,98074.22
2022-07-25T02:13:04.642Z,98075.16
2022-07-25T02:15:31.136Z,98077.78
2022-07-25T02:17:57.595Z,98069.66
2022-07-25T02:20:24.069Z,98078.66
2022-07-25T02:22:50.505Z,98076.28
2022-07-25T02:25:16.984Z,98080.97
2022-07-25T02:27:43.604Z,98078.88
2022-07-25T02:30:10.577Z,98081.94
2022-07-25T02:32:37.180Z,98070.41
2022-07-25T02:35:05.116Z,98077.94
2022-07-25T02:37:39.590Z,98071.22
2022-07-25T02:40:06.756Z,98081.09
2022-07-25T02:42:33.263Z,98068.19
2022-07-25T02:44:59.745Z,98078.34
2022-07-25T02:47:26.315Z,98090.38
2022-07-25T02:49:52.773Z,98087.88
2022-07-25T02:52:19.206Z,98088.91
2022-07-25T02:54:45.718Z,98086.03
2022-07-25T02:57:12.223Z,98076.41
2022-07-25T02:59:38.780Z,98083.44
2022-07-25T03:02:08.598Z,98085.66
2022-07-25T03:04:35.205Z,98089.31
2022-07-25T03:07:01.768Z,98091.47
2022-07-25T03:09:28.236Z,98088.56
2022-07-25T03:11:54.740Z,98085.09
2022-07-25T03:14:21.318Z,98094.09
2022-07-25T03:16:47.851Z,98086.06
2022-07-25T03:19:14.445Z,98080.84
2022-07-25T03:21:40.945Z,98082.28
2022-07-25T03:24:07.913Z,98073.81
2022-07-25T03:26:34.737Z,98073.19
2022-07-25T03:29:01.363Z,98067.03
2022-07-25T03:31:28.670Z,98065.44
2022-07-25T03:33:55.285Z,98060.22
2022-07-25T03:36:21.726Z,98051.66
2022-07-25T03:38:48.221Z,98054.19
2022-07-25T03:41:14.660Z,98050.41
2022-07-25T03:43:41.170Z,98048.13
2022-07-25T03:46:07.640Z,98050.09
2022-07-25T03:48:34.145Z,98043.22
2022-07-25T03:51:06.462Z,98043.31
2022-07-25T03:53:33.937Z,98043.00
2022-07-25T03:56:03.295Z,98037.88
2022-07-25T03:58:29.754Z,98030.88
2022-07-25T04:00:56.347Z,98041.13
2022-07-25T04:03:25.175Z,98028.59
2022-07-25T04:05:51.607Z,98028.59
2022-07-25T04:08:18.066Z,98040.69
2022-07-25T04:10:44.787Z,98032.13
2022-07-25T04:13:11.362Z,98035.56
2022-07-25T04:15:37.813Z,98023.84
2022-07-25T04:18:07.600Z,98020.47
2022-07-25T04:20:37.544Z,98022.31
2022-07-25T04:23:04.064Z,98019.16
2022-07-25T04:25:31.033Z,98026.22
2022-07-25T04:27:57.481Z,98019.72
2022-07-25T04:30:39.725Z,98015.88
2022-07-25T04:33:06.224Z,98017.84
2022-07-25T04:35:32.666Z,98018.13
2022-07-25T04:37:59.127Z,98015.34
2022-07-25T04:40:25.571Z,98014.22
2022-07-25T04:42:52.033Z,98021.66
2022-07-25T04:45:18.527Z,98017.38
2022-07-25T04:47:45.163Z,98021.13
2022-07-25T04:50:11.761Z,98019.69
2022-07-25T04:52:38.249Z,98024.31
2022-07-25T04:55:05.572Z,98019.59
2022-07-25T04:57:32.068Z,98009.88
2022-07-25T04:59:58.812Z,98009.03
2022-07-25T05:02:26.256Z,98003.75
2022-07-25T05:04:52.816Z,98000.47
2022-07-25T05:07:19.341Z,97996.75
2022-07-25T05:09:45.968Z,97990.34
2022-07-25T05:12:12.546Z,97993.00
2022-07-25T05:14:39.217Z,97985.72
2022-07-25T05:17:05.779Z,97992.69
2022-07-25T05:19:32.219Z,97994.97
2022-07-25T05:21:58.687Z,97995.94
2022-07-25T05:24:25.184Z,97998.47
2022-07-25T05:26:51.658Z,98007.25
2022-07-25T05:29:18.363Z,98003.47
2022-07-25T05:31:45.117Z,98005.03
2022-07-25T05:34:11.767Z,98006.59
2022-07-25T05:36:38.196Z,98003.72
2022-07-25T05:39:04.795Z,97997.66
2022-07-25T05:41:31.444Z,98005.72
2022-07-25T05:43:57.887Z,98004.34
2022-07-25T05:46:25.543Z,97999.75
2022-07-25T05:48:52.262Z,97998.56
2022-07-25T05:51:18.852Z,98009.41
2022-07-25T05:53:45.344Z,98006.97
2022-07-25T05:56:11.806Z,98007.88
2022-07-25T05:58:40.484Z,98002.31
2022-07-25T06:01:08.693Z,97998.53
2022-07-25T06:03:35.206Z,98002.91
2022-07-25T06:06:01.691Z,97993.63
2022-07-25T06:08:30.772Z,97998.03
2022-07-25T06:11:00.792Z,98001.22
2022-07-25T06:13:28.406Z,97999.81
2022-07-25T06:15:55.123Z,98000.19
2022-07-25T06:18:23.159Z,97996.28
2022-07-25T06:20:49.711Z,97994.97
2022-07-25T06:23:16.853Z,98003.19
2022-07-25T06:25:43.205Z,98002.94
2022-07-25T06:28:18.360Z,97996.78
2022-07-25T06:30:45.520Z,97995.78
2022-07-25T06:33:12.092Z,97996.13
2022-07-25T06:35:39.039Z,97993.09
2022-07-25T06:38:05.603Z,98000.22
2022-07-25T06:40:32.067Z,97991.78
2022-07-25T06:42:58.598Z,97989.56
2022-07-25T06:45:25.481Z,97995.47
2022-07-25T06:47:52.045Z,97991.47
2022-07-25T06:50:21.253Z,97993.44
2022-07-25T06:52:48.150Z,97981.13
2022-07-25T06:55:15.491Z,97977.97
2022-07-25T06:57:43.415Z,97973.91
2022-07-25T07:00:12.094Z,97978.81
2022-07-25T07:02:53.402Z,97969.59
2022-07-25T07:05:20.769Z,97968.94
2022-07-25T07:07:48.112Z,97965.69
2022-07-25T07:10:15.182Z,97966.56
2022-07-25T07:12:41.831Z,97963.84
2022-07-25T07:15:08.795Z,97968.78
2022-07-25T07:17:35.316Z,97968.66
2022-07-25T07:20:01.972Z,97963.78
2022-07-25T07:22:29.384Z,97968.00
2022-07-25T07:24:56.512Z,97962.91
2022-07-25T07:27:24.311Z,97965.53
2022-07-25T07:29:51.019Z,97963.41
2022-07-25T07:32:17.695Z,97963.06
2022-07-25T07:34:44.211Z,97961.81
2022-07-25T07:37:11.107Z,97956.88
2022-07-25T07:39:37.575Z,97961.00
2022-07-25T07:42:04.879Z,97954.94
2022-07-25T07:44:31.374Z,97951.31
2022-07-25T07:47:01.646Z,97943.34
2022-07-25T07:49:29.649Z,97943.63
2022-07-25T07:51:56.480Z,97940.56
2022-07-25T07:54:41.645Z,97936.72
2022-07-25T07:57:08.378Z,97929.94
2022-07-25T07:59:34.939Z,97932.88
2022-07-25T08:02:01.801Z,97934.53
2022-07-25T08:04:28.516Z,97929.59
2022-07-25T08:06:54.983Z,97919.34
2022-07-25T08:09:21.426Z,97928.19
2022-07-25T08:11:47.920Z,97921.63
2022-07-25T08:14:14.384Z,97918.06
2022-07-25T08:16:40.945Z,97917.13
2022-07-25T08:19:07.443Z,97909.28
2022-07-25T08:21:33.901Z,97912.22
2022-07-25T08:24:00.454Z,97899.47
2022-07-25T08:26:27.923Z,97903.75
2022-07-25T08:29:17.123Z,97911.13
2022-07-25T08:31:41.106Z,97895.81
2022-07-25T08:34:08.074Z,97887.78
2022-07-25T08:36:34.945Z,97887.56
2022-07-25T08:39:02.021Z,97895.72
2022-07-25T08:41:28.767Z,97892.69
2022-07-25T08:43:55.821Z,97895.13
2022-07-25T08:46:22.543Z,97893.63
2022-07-25T08:48:49.734Z,97891.75
2022-07-25T08:51:16.408Z,97881.69
2022-07-25T08:53:43.565Z,97884.53
2022-07-25T08:56:20.609Z,97879.94
2022-07-25T08:58:47.646Z,97871.97
2022-07-25T09:01:14.582Z,97870.47
2022-07-25T09:03:41.942Z,97862.69
2022-07-25T09:06:22.633Z,97863.41
2022-07-25T09:08:56.842Z,97861.16
2022-07-25T09:11:37.684Z,97849.16
2022-07-25T09:14:08.543Z,97850.53
2022-07-25T09:16:41.080Z,97849.16
2022-07-25T09:19:16.701Z,97842.25
2022-07-25T09:21:46.029Z,97839.69
2022-07-25T09:24:16.068Z,97835.03
2022-07-25T09:26:48.184Z,97830.34
2022-07-25T09:29:25.014Z,97837.81
2022-07-25T09:31:52.775Z,97832.88
2022-07-25T09:34:39.508Z,97826.31
2022-07-25T09:37:12.468Z,97812.59
2022-07-25T09:39:46.319Z,97813.34
2022-07-25T09:42:36.314Z,97810.19
2022-07-25T09:45:07.647Z,97811.38
2022-07-25T09:47:37.384Z,97806.56
2022-07-25T09:50:05.691Z,97808.22
2022-07-25T09:52:33.624Z,97800.00
2022-07-25T09:55:03.663Z,97804.63
2022-07-25T09:57:33.336Z,97795.38
2022-07-25T10:00:00.730Z,97796.09
2022-07-25T10:02:34.341Z,97799.69
2022-07-25T10:05:30.067Z,97790.22
2022-07-25T10:07:57.504Z,97796.78
2022-07-25T10:10:27.699Z,97789.53
2022-07-25T10:13:10.246Z,97778.31
2022-07-25T10:15:45.033Z,97778.97
2022-07-25T10:18:12.985Z,97780.00
2022-07-25T10:20:39.956Z,97783.50
2022-07-25T10:23:18.277Z,97778.44
2022-07-25T10:25:48.955Z,97767.53
2022-07-25T10:28:20.238Z,97774.31
2022-07-25T10:30:46.797Z,97778.41
2022-07-25T10:33:18.490Z,97773.47
2022-07-25T10:35:45.395Z,97778.59
2022-07-25T10:38:12.135Z,97765.38
2022-07-25T10:40:42.055Z,97765.38
2022-07-25T10:43:18.007Z,97755.00
2022-07-25T10:45:53.105Z,97753.50
2022-07-25T10:48:27.925Z,97753.25
2022-07-25T10:51:07.773Z,97759.56
2022-07-25T10:53:38.405Z,97753.16
2022-07-25T10:56:20.828Z,97745.09
2022-07-25T10:59:01.648Z,97742.94
2022-07-25T11:01:37.210Z,97747.78
2022-07-25T11:04:06.091Z,97742.78
2022-07-25T11:06:43.066Z,97738.03
2022-07-25T11:09:27.990Z,97736.28
2022-07-25T11:11:57.586Z,97733.25
2022-07-25T11:14:28.930Z,97735.56
2022-07-25T11:17:09.422Z,97727.66
2022-07-25T11:19:35.936Z,97720.25
2022-07-25T11:22:05.747Z,97709.41
2022-07-25T11:24:41.176Z,97703.41
2022-07-25T11:27:12.330Z,97707.38
2022-07-25T11:29:39.851Z,97704.06
2022-07-25T11:32:11.201Z,97696.00
2022-07-25T11:34:42.814Z,97695.47
2022-07-25T11:37:11.728Z,97685.47
2022-07-25T11:39:42.324Z,97683.53
2022-07-25T11:42:09.919Z,97680.38
2022-07-25T11:44:47.465Z,97672.34
2022-07-25T11:47:23.453Z,97661.03
2022-07-25T11:49:51.185Z,97659.63
2022-07-25T11:52:26.111Z,97658.13
2022-07-25T11:54:52.585Z,97655.97
2022-07-25T11:57:23.982Z,97654.13
2022-07-25T11:59:50.649Z,97644.06
2022-07-25T12:02:32.252Z,97643.00
2022-07-25T12:05:00.939Z,97638.09
2022-07-25T12:07:36.685Z,97648.84
2022-07-25T12:10:06.387Z,97639.22
2022-07-25T12:12:52.522Z,97624.97
2022-07-25T12:15:28.509Z,97636.97
2022-07-25T12:17:56.837Z,97628.75
2022-07-25T12:20:26.853Z,97623.75
2022-07-25T12:22:56.409Z,97620.34
2022-07-25T12:25:27.551Z,97619.78
2022-07-25T12:27:58.880Z,97633.22
2022-07-25T12:30:27.522Z,97619.19
2022-07-25T12:32:54.456Z,97613.81
2022-07-25T12:35:21.167Z,97611.38
2022-07-25T12:37:48.189Z,97606.69
2022-07-25T12:40:16.825Z,97607.41
2022-07-25T12:42:44.420Z,97610.09
2022-07-25T12:45:13.955Z,97608.59
2022-07-25T12:47:40.823Z,97603.78
2022-07-25T12:50:07.602Z,97603.09
2022-07-25T12:52:34.353Z,97597.47
2022-07-25T12:55:00.971Z,97592.00
2022-07-25T12:57:27.839Z,97592.72
2022-07-25T12:59:58.100Z,97586.84
2022-07-25T13:02:24.765Z,97579.59
2022-07-25T13:04:51.299Z,97584.63
2022-07-25T13:07:17.966Z,97586.06
2022-07-25T13:09:50.526Z,97575.66
2022-07-25T13:12:17.136Z,97570.16
2022-07-25T13:14:43.750Z,97571.28
2022-07-25T13:17:11.259Z,97573.50
2022-07-25T13:19:39.012Z,97574.19
2022-07-25T13:22:06.022Z,97567.00
2022-07-25T13:24:34.519Z,97556.50
2022-07-25T13:27:05.054Z,97554.88
2022-07-25T13:29:31.774Z,97558.00
2022-07-25T13:31:58.550Z,97550.78
2022-07-25T13:34:25.071Z,97554.69
2022-07-25T13:36:53.966Z,97564.81
2022-07-25T13:39:22.392Z,97557.22
2022-07-25T13:41:49.486Z,97554.78
2022-07-25T13:44:16.247Z,97565.78
2022-07-25T13:46:46.080Z,97562.13
2022-07-25T13:49:13.162Z,97567.50
2022-07-25T13:51:39.988Z,97557.78
2022-07-25T13:54:08.774Z,97553.81
2022-07-25T13:56:35.342Z,97554.28
2022-07-25T13:59:04.070Z,97553.56
2022-07-25T14:01:30.992Z,97551.75
2022-07-25T14:03:57.705Z,97567.28
2022-07-25T14:06:24.311Z,97566.84
2022-07-25T14:08:50.899Z,97561.72
2022-07-25T14:11:17.589Z,97550.16
2022-07-25T14:13:45.278Z,97556.38
2022-07-25T14:16:16.227Z,97553.78
2022-07-25T14:18:42.794Z,97562.44
2022-07-25T14:21:09.344Z,97551.09
2022-07-25T14:23:38.017Z,97553.78
2022-07-25T14:26:04.735Z,97552.88
2022-07-25T14:28:31.289Z,97550.38
2022-07-25T14:30:57.847Z,97546.28
2022-07-25T14:33:24.426Z,97542.28
2022-07-25T14:35:50.954Z,97542.66
2022-07-25T14:38:17.510Z,97551.63
2022-07-25T14:40:44.228Z,97531.88
2022-07-25T14:43:12.788Z,97537.66
2022-07-25T14:45:41.288Z,97547.63
2022-07-25T14:48:07.809Z,97535.44
2022-07-25T14:50:34.412Z,97536.78
2022-07-25T14:53:00.952Z,97545.59
2022-07-25T14:55:27.621Z,97554.50
2022-07-25T14:57:54.163Z,97543.38
2022-07-25T15:00:22.781Z,97561.69
2022-07-25T15:02:51.561Z,97559.91
2022-07-25T15:05:18.134Z,97557.50
2022-07-25T15:07:44.711Z,97550.00
2022-07-25T15:10:11.307Z,97547.56
2022-07-25T15:12:37.841Z,97550.00
2022-07-25T15:15:05.020Z,97548.81
2022-07-25T15:17:32.292Z,97546.59
2022-07-25T15:19:58.852Z,97547.72
2022-07-25T15:22:25.269Z,97547.00
2022-07-25T15:25:27.190Z,97543.75
2022-07-25T15:27:38.434Z,97541.66
2022-07-25T15:30:06.463Z,97532.69
2022-07-25T15:32:33.440Z,97524.69
2022-07-25T15:34:59.911Z,97528.78
2022-07-25T15:37:28.089Z,97531.34
2022-07-25T15:39:54.646Z,97527.41
2022-07-25T15:42:24.465Z,97519.25
2022-07-25T15:45:15.201Z,97529.22
2022-07-25T15:47:40.532Z,97522.66
2022-07-25T15:50:07.561Z,97525.34
2022-07-25T15:52:34.338Z,97523.34
2022-07-25T15:55:00.847Z,97527.44
2022-07-25T15:57:27.335Z,97534.56
2022-07-25T15:59:53.905Z,97544.22
2022-07-25T16:02:20.399Z,97532.88
2022-07-25T16:04:46.909Z,97545.53
2022-07-25T16:07:13.400Z,97533.25
2022-07-25T16:09:40.024Z,97535.44
2022-07-25T16:12:06.927Z,97531.81
2022-07-25T16:14:33.722Z,97534.59
2022-07-25T16:17:00.578Z,97536.69
2022-07-25T16:19:27.151Z,97547.25
2022-07-25T16:21:53.678Z,97540.97
2022-07-25T16:24:20.181Z,97545.31
2022-07-25T16:26:48.112Z,97540.84
2022-07-25T16:29:16.662Z,97544.75
2022-07-25T16:31:43.595Z,97552.19
2022-07-25T16:34:10.180Z,97548.53
2022-07-25T16:36:36.749Z,97540.94
2022-07-25T16:39:04.003Z,97536.84
2022-07-25T16:41:30.633Z,97528.84
2022-07-25T16:43:57.968Z,97528.03
2022-07-25T16:46:28.249Z,97517.13
2022-07-25T16:48:55.246Z,97523.28
2022-07-25T16:51:21.948Z,97524.09
2022-07-25T16:53:48.544Z,97515.91
2022-07-25T16:56:16.489Z,97500.84
2022-07-25T16:58:43.289Z,97508.84
2022-07-25T17:01:09.901Z,97515.84
2022-07-25T17:03:36.501Z,97508.25
2022-07-25T17:06:03.388Z,97508.03
2022-07-25T17:08:31.952Z,97498.16
2022-07-25T17:10:58.819Z,97496.94
2022-07-25T17:13:26.013Z,97498.38
2022-07-25T17:15:53.015Z,97499.44
2022-07-25T17:18:19.734Z,97495.91
2022-07-25T17:20:46.416Z,97491.16
2022-07-25T17:23:13.119Z,97507.19
2022-07-25T17:25:50.064Z,97508.44
2022-07-25T17:28:17.259Z,97502.28
2022-07-25T17:30:44.075Z,97500.66
2022-07-25T17:33:10.648Z,97501.50
2022-07-25T17:35:37.335Z,97512.59
2022-07-25T17:38:03.958Z,97513.69
2022-07-25T17:40:31.001Z,97509.56
2022-07-25T17:42:57.858Z,97514.50
2022-07-25T17:45:26.012Z,97516.34
2022-07-25T17:47:52.747Z,97519.63
2022-07-25T17:50:27.182Z,97525.38
2022-07-25T17:53:00.238Z,97520.00
2022-07-25T17:55:30.134Z,97524.13
2022-07-25T17:57:59.792Z,97519.38
2022-07-25T18:00:27.425Z,97522.44
2022-07-25T18:02:53.963Z,97528.59
2022-07-25T18:05:20.556Z,97528.94
2022-07-25T18:07:49.546Z,97523.41
2022-07-25T18:10:17.627Z,97521.97
2022-07-25T18:12:44.549Z,97521.13
2022-07-25T18:15:12.374Z,97516.16
2022-07-25T18:17:41.197Z,97525.13
2022-07-25T18:20:08.450Z,97530.38
2022-07-25T18:22:35.035Z,97519.31
2022-07-25T18:25:01.698Z,97517.41
2022-07-25T18:27:28.213Z,97522.47
2022-07-25T18:29:54.715Z,97528.56
2022-07-25T18:32:21.250Z,97525.63
2022-07-25T18:34:47.748Z,97525.69
2022-07-25T18:37:14.247Z,97520.75
2022-07-25T18:39:40.965Z,97532.31
2022-07-25T18:42:07.736Z,97525.28
2022-07-25T18:44:34.410Z,97524.59
2022-07-25T18:47:01.000Z,97528.41
2022-07-25T18:49:28.500Z,97524.84
2022-07-25T18:51:55.240Z,97521.31
2022-07-25T18:54:22.219Z,97527.38
2022-07-25T18:56:48.983Z,97535.63
2022-07-25T18:59:15.969Z,97533.34
2022-07-25T19:01:42.688Z,97530.22
2022-07-25T19:04:11.757Z,97546.91
2022-07-25T19:06:38.455Z,97535.56
2022-07-25T19:09:05.042Z,97545.78
2022-07-25T19:11:33.350Z,97546.66
2022-07-25T19:13:59.863Z,97552.44
2022-07-25T19:16:26.646Z,97560.22
2022-07-25T19:18:53.423Z,97565.28
2022-07-25T19:21:20.121Z,97567.66
2022-07-25T19:23:50.836Z,97592.38
2022-07-25T19:26:21.420Z,97589.72
2022-07-25T19:28:50.102Z,97589.75
2022-07-25T19:31:17.442Z,97592.84
2022-07-25T19:33:46.064Z,97605.28
2022-07-25T19:36:13.813Z,97609.81
2022-07-25T19:38:40.525Z,97615.94
2022-07-25T19:41:08.296Z,97616.34
2022-07-25T19:43:37.816Z,97639.63
2022-07-25T19:46:04.525Z,97653.16
2022-07-25T19:48:31.250Z,97660.16
2022-07-25T19:50:57.815Z,97652.09
2022-07-25T19:53:28.644Z,97672.34
2022-07-25T19:55:55.495Z,97664.94
2022-07-25T19:58:25.213Z,97670.28
2022-07-25T20:00:51.856Z,97669.63
2022-07-25T20:03:23.223Z,97671.81
2022-07-25T20:05:50.381Z,97669.06
2022-07-25T20:08:18.129Z,97674.84
2022-07-25T20:10:44.971Z,97673.53
2022-07-25T20:13:12.212Z,97671.34
2022-07-25T20:15:38.817Z,97677.50
2022-07-25T20:18:19.662Z,97682.78
2022-07-25T20:20:55.049Z,97676.81
2022-07-25T20:23:23.503Z,97690.72
2022-07-25T20:25:50.772Z,97694.84
2022-07-25T20:28:20.181Z,97699.97
2022-07-25T20:30:50.880Z,97702.13
2022-07-25T20:33:18.246Z,97715.50
2022-07-25T20:35:47.606Z,97714.81
2022-07-25T20:38:14.771Z,97727.75
2022-07-25T20:41:16.073Z,97717.81
2022-07-25T20:43:56.047Z,97724.25
2022-07-25T20:51:08.513Z,97724.59
2022-07-25T20:53:35.301Z,97737.97
2022-07-25T20:56:02.701Z,97744.91
2022-07-25T20:58:29.607Z,97747.72
2022-07-25T21:00:56.227Z,97755.66
2022-07-25T21:03:22.918Z,97751.53
2022-07-25T21:05:50.023Z,97759.81
2022-07-25T21:08:16.952Z,97753.00
2022-07-25T21:10:43.837Z,97768.41
2022-07-25T21:13:10.526Z,97776.97
2022-07-25T21:15:37.283Z,97772.31
2022-07-25T21:18:04.090Z,97783.53
2022-07-25T21:20:33.293Z,97791.91
2022-07-25T21:23:05.093Z,97787.44
2022-07-25T21:25:37.743Z,97788.72
2022-07-25T21:28:10.064Z,97793.16
2022-07-25T21:30:37.804Z,97788.34
2022-07-25T21:33:15.014Z,97796.59
2022-07-25T21:35:49.227Z,97800.53
2022-07-25T21:38:27.662Z,97809.03
2022-07-25T21:40:56.601Z,97809.00
2022-07-25T21:43:26.473Z,97809.22
2022-07-25T21:45:56.070Z,97808.34
2022-07-25T21:48:46.213Z,97818.19
2022-07-25T21:51:18.783Z,97828.41
2022-07-25T21:53:50.229Z,97830.16
2022-07-25T21:56:16.820Z,97843.72
2022-07-25T21:58:43.616Z,97843.13
2022-07-25T22:01:10.447Z,97850.22
2022-07-25T22:03:37.214Z,97851.00
2022-07-25T22:06:19.220Z,97872.44
2022-07-25T22:08:53.878Z,97867.91
2022-07-25T22:11:38.684Z,97877.53
2022-07-25T22:14:07.469Z,97875.91
2022-07-25T22:16:34.126Z,97879.81
2022-07-25T22:19:00.991Z,97893.56
2022-07-25T22:21:27.625Z,97893.50
2022-07-25T22:23:54.369Z,97889.63
2022-07-25T22:26:21.384Z,97896.31
2022-07-25T22:28:48.629Z,97903.28
2022-07-25T22:31:15.657Z,97896.06
2022-07-25T22:33:45.024Z,97898.28
2022-07-25T22:36:11.782Z,97891.63
2022-07-25T22:38:38.428Z,97896.59
2022-07-25T22:41:05.066Z,97893.59
2022-07-25T22:43:53.162Z,97906.34
2022-07-25T22:46:19.000Z,97907.75
2022-07-25T22:48:45.546Z,97905.94
2022-07-25T22:51:12.117Z,97916.22
2022-07-25T22:53:38.833Z,97922.91
2022-07-25T22:56:05.922Z,97932.19
2022-07-25T22:58:32.393Z,97936.19
2022-07-25T23:00:59.009Z,97936.75
2022-07-25T23:07:15.670Z,97950.22
2022-07-25T23:09:42.343Z,97964.88
2022-07-25T23:12:08.880Z,97958.63
2022-07-25T23:14:35.408Z,97967.66
2022-07-25T23:17:17.088Z,97966.22
2022-07-25T23:19:44.384Z,97963.75
2022-07-25T23:22:10.911Z,97972.75
2022-07-25T23:24:38.160Z,97974.13
2022-07-25T23:27:05.183Z,97977.56
2022-07-25T23:29:31.810Z,97984.75
2022-07-25T23:31:58.427Z,97986.25
2022-07-25T23:34:24.931Z,97994.41
2022-07-25T23:36:51.426Z,97989.16
2022-07-25T23:39:17.855Z,97991.50
2022-07-25T23:41:44.318Z,97995.28
2022-07-25T23:44:11.166Z,97999.69
2022-07-25T23:46:38.599Z,97996.63
2022-07-25T23:49:06.526Z,98005.34
2022-07-25T23:51:33.166Z,97994.69
2022-07-25T23:53:59.662Z,98002.44
2022-07-25T23:56:26.178Z,97989.41
2022-07-25T23:58:52.693Z,97993.56
